Etihad Airways Virtual Airport Information Service

Dubai International Airport

ICAO: OMDB Country: United Arab Emirates
Latitude: 25.2528 Longitude: 55.3644
Latest Arrival : FDB132 (OOMS-OMDB) Latest Departure : FDB911 (OMDB-UUWW)


WX CaptureLIVE
Data provided by noaa.gov | Recorded at 07:09:12

METAR : OMDB 150600Z 26004KT 190V310 CAVOK 32/11 Q1010 NOSIG

TAF : OMDB 150500Z 1506/1612 21005KT CAVOK BECMG 1506/1508 28014KT BECMG 1518/1520 20007KT BECMG 1605/1607 27014KT


Runway Data for OMDB
Data provided by openaviationdata.com

Runway ID Mag Var Hdg Length Elevation Surface ILS Freq ILS Id ILS Slope

Dubai International Airport, United Arab Emirates
Use only for reference purposes